Willard, New Mexico
Current Conditions -  °F | °C
As of 10:35 PM on Saturday 20 Dec 2014 (Local Time) from K0E0 Reporting Station
Clear Clear  
Wind Chill: 27°   Ceiling: Unl
Heat Index: 27°   Visibility: 10mi
Dew Point: 21°   Wind: 3mph
Humidity: 78%   Direction: 200°SSW
Pressure: 30.07"   Gusts: NA
Location:  34.6°N, 106.03°W
Report Text: K0E0 210535Z AUTO 20003KT 10SM CLR M03/M06 A3007 RMK AO2 T10281062
Loading
Personal Weather Stations






























Interactive Weather Map New forecast layout! Learn more

10-Day Weather Forecast

Advertisements
Track Severe Weather on mobile